createdAt,value
2019-01-02T00:02:21.724Z,97705.09
2019-01-02T00:04:52.262Z,97699.06
2019-01-02T00:07:27.229Z,97697.39
2019-01-02T00:09:57.100Z,97702.59
2019-01-02T00:12:28.588Z,97693.56
2019-01-02T00:15:00.319Z,97690.02
2019-01-02T00:17:30.281Z,97681.72
2019-01-02T00:20:07.620Z,97693.20
2019-01-02T00:22:40.632Z,97684.99
2019-01-02T00:25:13.779Z,97676.98
2019-01-02T00:27:43.703Z,97668.69
2019-01-02T00:30:15.572Z,97662.22
2019-01-02T00:32:45.742Z,97654.61
2019-01-02T00:35:15.606Z,97650.53
2019-01-02T00:37:45.827Z,97649.09
2019-01-02T00:40:15.711Z,97659.70
2019-01-02T00:42:45.874Z,97660.87
2019-01-02T00:45:15.785Z,97660.87
2019-01-02T00:47:47.641Z,97656.45
2019-01-02T00:50:18.052Z,97650.44
2019-01-02T00:52:47.824Z,97650.44
2019-01-02T00:55:17.679Z,97664.03
2019-01-02T00:57:47.514Z,97667.80
2019-01-02T01:00:19.878Z,97663.76
2019-01-02T01:02:52.018Z,97659.03
2019-01-02T01:05:22.692Z,97655.33
2019-01-02T01:07:52.779Z,97668.85
2019-01-02T01:10:22.583Z,97676.22
2019-01-02T01:12:52.366Z,97667.00
2019-01-02T01:15:22.141Z,97671.92
2019-01-02T01:17:52.104Z,97664.57
2019-01-02T01:20:21.979Z,97662.40
2019-01-02T01:22:51.894Z,97649.45
2019-01-02T01:25:23.609Z,97651.53
2019-01-02T01:27:53.453Z,97749.61
2019-01-02T01:30:23.369Z,97650.19
2019-01-02T01:32:53.151Z,97659.33
2019-01-02T01:35:24.440Z,97651.73
2019-01-02T01:37:54.752Z,97642.19
2019-01-02T01:40:24.772Z,97640.35
2019-01-02T01:42:54.572Z,97645.05
2019-01-02T01:45:24.803Z,97640.66
2019-01-02T01:47:54.577Z,97627.00
2019-01-02T01:50:28.017Z,97625.36
2019-01-02T01:52:57.852Z,97607.69
2019-01-02T01:55:27.707Z,97604.11
2019-01-02T01:57:58.048Z,97598.42
2019-01-02T02:00:27.884Z,97589.48
2019-01-02T02:02:58.442Z,97574.52
2019-01-02T02:05:29.383Z,97593.14
2019-01-02T02:07:59.129Z,97581.16
2019-01-02T02:10:28.976Z,97578.69
2019-01-02T02:12:59.003Z,97591.19
2019-01-02T02:15:28.860Z,97588.88
2019-01-02T02:17:59.140Z,97594.69
2019-01-02T02:20:29.296Z,97587.08
2019-01-02T02:22:59.282Z,97597.34
2019-01-02T02:25:29.442Z,97597.34
2019-01-02T02:27:59.261Z,97574.69
2019-01-02T02:30:29.040Z,97559.15
2019-01-02T02:32:58.939Z,97555.69
2019-01-02T02:35:29.049Z,97560.75
2019-01-02T02:37:59.491Z,97560.75
2019-01-02T02:40:29.345Z,97437.44
2019-01-02T02:42:59.169Z,97543.99
2019-01-02T02:45:29.436Z,97553.02
2019-01-02T02:47:59.585Z,97543.90
2019-01-02T02:50:29.792Z,97543.90
2019-01-02T02:53:00.408Z,97551.08
2019-01-02T02:55:32.580Z,97551.08
2019-01-02T02:58:03.831Z,97541.05
2019-01-02T03:00:33.642Z,97537.86
2019-01-02T03:03:09.974Z,97530.16
2019-01-02T03:05:41.149Z,97530.16
2019-01-02T03:08:10.919Z,97531.09
2019-01-02T03:10:41.178Z,97522.99
2019-01-02T03:13:11.351Z,97514.08
2019-01-02T03:15:41.528Z,97512.22
2019-01-02T03:18:13.289Z,97522.38
2019-01-02T03:20:43.223Z,97501.97
2019-01-02T03:23:12.993Z,97500.20
2019-01-02T03:25:43.137Z,97503.16
2019-01-02T03:28:14.886Z,97501.83
2019-01-02T03:30:45.144Z,97477.53
2019-01-02T03:33:15.554Z,97477.53
2019-01-02T03:35:45.511Z,97482.67
2019-01-02T03:38:15.288Z,97479.91
2019-01-02T03:40:45.312Z,97470.50
2019-01-02T03:43:15.117Z,97456.61
2019-01-02T03:45:44.935Z,97449.31
2019-01-02T03:48:14.783Z,97442.86
2019-01-02T03:50:45.167Z,97442.86
2019-01-02T03:53:17.862Z,97436.23
2019-01-02T03:55:47.768Z,97425.91
2019-01-02T03:58:17.698Z,97403.33
2019-01-02T04:00:47.709Z,97410.00
2019-01-02T04:03:17.663Z,97410.00
2019-01-02T04:05:47.436Z,97395.42
2019-01-02T04:08:17.374Z,97416.17
2019-01-02T04:10:47.153Z,97416.17
2019-01-02T04:13:17.021Z,97423.53
2019-01-02T04:15:47.814Z,97423.59
2019-01-02T04:18:17.643Z,97423.50
2019-01-02T04:20:47.534Z,97414.05
2019-01-02T04:23:17.354Z,97410.32
2019-01-02T04:25:48.789Z,97400.16
2019-01-02T04:28:18.720Z,97395.48
2019-01-02T04:30:48.636Z,97396.44
2019-01-02T04:33:18.446Z,97414.88
2019-01-02T04:35:48.358Z,97418.50
2019-01-02T04:38:18.572Z,97411.81
2019-01-02T04:40:48.512Z,97399.91
2019-01-02T04:43:18.322Z,97404.45
2019-01-02T04:45:48.224Z,97392.52
2019-01-02T04:48:18.218Z,97390.62
2019-01-02T04:50:48.203Z,97390.62
2019-01-02T04:53:18.076Z,97394.29
2019-01-02T04:55:47.861Z,97396.20
2019-01-02T04:58:17.706Z,97398.28
2019-01-02T05:00:47.743Z,97392.92
2019-01-02T05:03:20.498Z,97381.55
2019-01-02T05:05:51.659Z,97387.69
2019-01-02T05:08:21.566Z,97387.90
2019-01-02T05:10:51.466Z,97375.45
2019-01-02T05:13:21.427Z,97354.83
2019-01-02T05:15:51.376Z,97356.24
2019-01-02T05:18:22.803Z,97356.24
2019-01-02T05:20:53.098Z,97363.52
2019-01-02T05:23:22.998Z,97358.58
2019-01-02T05:25:54.658Z,97351.95
2019-01-02T05:28:25.726Z,97345.54
2019-01-02T05:30:57.664Z,97345.54
2019-01-02T05:33:28.088Z,97352.11
2019-01-02T05:35:58.222Z,97349.65
2019-01-02T05:38:30.491Z,97361.29
2019-01-02T05:41:01.323Z,97360.50
2019-01-02T05:43:31.645Z,97360.50
2019-01-02T05:46:03.316Z,97357.08
2019-01-02T05:48:33.529Z,97351.34
2019-01-02T05:51:03.740Z,97345.51
2019-01-02T05:53:35.102Z,97346.41
2019-01-02T05:56:04.907Z,97358.13
2019-01-02T05:58:35.065Z,97360.86
2019-01-02T06:01:05.873Z,97358.84
2019-01-02T06:03:35.994Z,97358.84
2019-01-02T06:06:07.743Z,97363.89
2019-01-02T06:08:39.181Z,97351.80
2019-01-02T06:11:09.630Z,97351.80
2019-01-02T06:13:39.534Z,97355.49
2019-01-02T06:16:10.314Z,97369.73
2019-01-02T06:18:40.903Z,97374.12
2019-01-02T06:21:10.852Z,97374.12
2019-01-02T06:23:40.662Z,97362.45
2019-01-02T06:26:10.433Z,97356.16
2019-01-02T06:28:40.260Z,97356.16
2019-01-02T06:31:10.023Z,97362.43
2019-01-02T06:33:39.770Z,97367.66
2019-01-02T06:36:10.211Z,97365.77
2019-01-02T06:38:40.134Z,97365.77
2019-01-02T06:41:10.131Z,97373.23
2019-01-02T06:43:40.061Z,97385.13
2019-01-02T06:46:10.097Z,97393.09
2019-01-02T06:48:40.102Z,97384.64
2019-01-02T06:51:10.152Z,97377.98
2019-01-02T06:53:39.967Z,97382.36
2019-01-02T06:56:09.859Z,97388.03
2019-01-02T06:58:40.600Z,97370.28
2019-01-02T07:01:10.420Z,97374.86
2019-01-02T07:03:40.201Z,97370.42
2019-01-02T07:06:10.236Z,97381.66
2019-01-02T07:08:40.136Z,97375.28
2019-01-02T07:11:12.852Z,97374.73
2019-01-02T07:13:42.605Z,97377.33
2019-01-02T07:16:13.974Z,97388.81
2019-01-02T07:18:44.543Z,97394.79
2019-01-02T07:21:14.444Z,97403.48
2019-01-02T07:23:44.212Z,97406.89
2019-01-02T07:26:14.020Z,97397.58
2019-01-02T07:28:44.085Z,97395.13
2019-01-02T07:31:14.409Z,97375.62
2019-01-02T07:33:47.177Z,97375.62
2019-01-02T07:36:39.795Z,97379.89
2019-01-02T07:39:28.672Z,97379.89
2019-01-02T07:42:06.557Z,97380.10
2019-01-02T07:44:57.415Z,97377.91
2019-01-02T07:47:41.953Z,97384.47
2019-01-02T07:50:19.037Z,97384.50
2019-01-02T07:53:03.445Z,97399.14
2019-01-02T07:56:10.919Z,97399.14
2019-01-02T07:58:46.572Z,97398.38
2019-01-02T08:01:37.721Z,97402.11
2019-01-02T08:04:49.944Z,97402.89
2019-01-02T08:07:37.195Z,97402.55
2019-01-02T08:10:18.415Z,97396.17
2019-01-02T08:13:23.394Z,97394.66
2019-01-02T08:16:15.762Z,97393.16
2019-01-02T08:19:13.105Z,97391.88
2019-01-02T08:22:17.849Z,97384.56
2019-01-02T08:25:27.355Z,97381.10
2019-01-02T08:28:01.363Z,97370.67
2019-01-02T08:30:44.855Z,97368.59
2019-01-02T08:33:47.743Z,97370.70
2019-01-02T08:36:20.466Z,97370.53
2019-01-02T08:39:23.376Z,97371.55
2019-01-02T08:42:15.241Z,97366.03
2019-01-02T08:44:54.795Z,97354.58
2019-01-02T08:47:51.106Z,97357.67
2019-01-02T08:50:35.624Z,97352.59
2019-01-02T08:53:21.001Z,97353.55
2019-01-02T08:55:54.193Z,97358.62
2019-01-02T08:58:41.839Z,97354.33
2019-01-02T09:01:22.751Z,97355.67
2019-01-02T09:04:05.326Z,97356.59
2019-01-02T09:06:55.846Z,97365.92
2019-01-02T09:09:46.273Z,97366.09
2019-01-02T09:12:29.401Z,97355.18
2019-01-02T09:15:02.200Z,97353.27
2019-01-02T09:17:38.217Z,97349.30
2019-01-02T09:20:24.104Z,97345.48
2019-01-02T09:22:59.963Z,97349.00
2019-01-02T09:26:00.121Z,97347.12
2019-01-02T09:28:49.151Z,97346.60
2019-01-02T09:31:59.650Z,97343.28
2019-01-02T09:34:34.042Z,97344.11
2019-01-02T09:37:40.509Z,97345.30
2019-01-02T09:40:37.509Z,97358.69
2019-01-02T09:43:44.040Z,97342.03
2019-01-02T09:46:37.038Z,97332.56
2019-01-02T09:49:13.377Z,97320.40
2019-01-02T09:52:22.298Z,97319.77
2019-01-02T09:55:16.374Z,97324.48
2019-01-02T09:57:51.816Z,97320.24
2019-01-02T10:00:41.101Z,97322.14
2019-01-02T10:03:45.866Z,97328.39
2019-01-02T10:06:28.993Z,97323.13
2019-01-02T10:09:04.545Z,97304.11
2019-01-02T10:11:55.498Z,97301.73
2019-01-02T10:14:41.878Z,97307.59
2019-01-02T10:17:26.674Z,97295.17
2019-01-02T10:20:20.654Z,97311.66
2019-01-02T10:23:20.371Z,97304.80
2019-01-02T10:26:05.255Z,97298.34
2019-01-02T10:28:50.196Z,97305.18
2019-01-02T10:34:48.627Z,97287.05
2019-01-02T10:37:26.940Z,97285.84
2019-01-02T10:40:22.447Z,97289.86
2019-01-02T10:43:24.108Z,97290.25
2019-01-02T10:46:13.233Z,97283.12
2019-01-02T10:49:05.520Z,97285.37
2019-01-02T10:51:56.819Z,97305.34
2019-01-02T10:54:55.060Z,97307.32
2019-01-02T10:57:30.762Z,97305.95
2019-01-02T11:00:36.313Z,97298.64
2019-01-02T11:03:48.069Z,97300.50
2019-01-02T11:06:37.597Z,97305.17
2019-01-02T11:09:30.198Z,97291.62
2019-01-02T11:12:09.203Z,97306.11
2019-01-02T11:14:45.767Z,97323.21
2019-01-02T11:17:19.295Z,97325.44
2019-01-02T11:20:10.868Z,97325.63
2019-01-02T11:22:56.229Z,97320.75
2019-01-02T11:26:01.794Z,97326.19
2019-01-02T11:28:37.296Z,97327.27
2019-01-02T11:31:33.955Z,97340.65
2019-01-02T11:34:33.159Z,97329.95
2019-01-02T11:37:11.585Z,97327.74
2019-01-02T11:39:57.426Z,97348.21
2019-01-02T11:42:48.302Z,97349.60
2019-01-02T11:45:18.629Z,97366.95
2019-01-02T11:47:49.076Z,97357.50
2019-01-02T11:50:19.158Z,97369.59
2019-01-02T11:52:48.988Z,97375.41
2019-01-02T11:55:19.011Z,97387.99
2019-01-02T11:57:48.813Z,97391.23
2019-01-02T12:00:18.741Z,97381.83
2019-01-02T12:02:52.814Z,97401.09
2019-01-02T12:05:23.486Z,97412.20
2019-01-02T12:07:53.379Z,97413.57
2019-01-02T12:10:23.689Z,97425.90
2019-01-02T12:12:56.212Z,97439.87
2019-01-02T12:15:27.900Z,97431.64
2019-01-02T12:17:59.252Z,97447.72
2019-01-02T12:20:29.125Z,97439.22
2019-01-02T12:23:00.755Z,97452.14
2019-01-02T12:25:30.904Z,97447.02
2019-01-02T12:28:00.882Z,97461.10
2019-01-02T12:30:30.717Z,97472.34
2019-01-02T12:33:00.558Z,97470.95
2019-01-02T12:35:30.360Z,97465.70
2019-01-02T12:38:00.284Z,97455.81
2019-01-02T12:40:31.481Z,97442.13
2019-01-02T12:43:01.388Z,97450.53
2019-01-02T12:45:31.467Z,97449.36
2019-01-02T12:48:02.689Z,97454.80
2019-01-02T12:50:32.633Z,97458.48
2019-01-02T12:53:03.980Z,97464.62
2019-01-02T12:55:33.787Z,97460.70
2019-01-02T12:58:05.549Z,97477.73
2019-01-02T13:00:38.209Z,97473.86
2019-01-02T13:03:25.889Z,97485.13
2019-01-02T13:06:22.357Z,97477.83
2019-01-02T13:09:13.338Z,97486.66
2019-01-02T13:12:12.448Z,97493.34
2019-01-02T13:14:47.960Z,97484.63
2019-01-02T13:17:49.810Z,97479.39
2019-01-02T13:20:27.422Z,97452.33
2019-01-02T13:23:05.593Z,97472.56
2019-01-02T13:25:44.126Z,97483.52
2019-01-02T13:28:25.799Z,97488.55
2019-01-02T13:31:22.909Z,97487.25
2019-01-02T13:34:04.734Z,97479.20
2019-01-02T13:36:40.500Z,97474.19
2019-01-02T13:39:16.083Z,97475.07
2019-01-02T13:42:05.396Z,97466.52
2019-01-02T13:44:40.813Z,97468.80
2019-01-02T13:47:36.445Z,97465.13
2019-01-02T13:50:18.152Z,97468.65
2019-01-02T13:52:51.570Z,97468.70
2019-01-02T13:55:21.460Z,97474.96
2019-01-02T13:57:51.246Z,97490.88
2019-01-02T14:00:20.999Z,97478.44
2019-01-02T14:02:54.007Z,97478.03
2019-01-02T14:05:25.929Z,97490.57
2019-01-02T14:07:56.857Z,97497.67
2019-01-02T14:10:27.064Z,97500.34
2019-01-02T14:13:00.172Z,97497.82
2019-01-02T14:15:29.973Z,97497.69
2019-01-02T14:17:59.809Z,97496.58
2019-01-02T14:20:29.705Z,97506.97
2019-01-02T14:23:02.090Z,97499.52
2019-01-02T14:25:31.986Z,97499.52
2019-01-02T14:28:02.931Z,97505.02
2019-01-02T14:30:32.749Z,97509.83
2019-01-02T14:33:02.766Z,97512.89
2019-01-02T14:35:32.531Z,97506.94
2019-01-02T14:38:02.382Z,97507.16
2019-01-02T14:40:32.412Z,97511.81
2019-01-02T14:43:02.333Z,97514.60
2019-01-02T14:45:32.243Z,97524.51
2019-01-02T14:48:02.063Z,97521.04
2019-01-02T14:50:33.508Z,97517.54
2019-01-02T14:53:03.538Z,97517.52
2019-01-02T14:55:33.428Z,97518.17
2019-01-02T14:58:03.233Z,97520.69
2019-01-02T15:00:32.963Z,97527.73
2019-01-02T15:03:06.916Z,97530.81
2019-01-02T15:05:37.923Z,97535.98
2019-01-02T15:08:07.722Z,97532.48
2019-01-02T15:10:37.545Z,97534.05
2019-01-02T15:13:07.459Z,97540.14
2019-01-02T15:15:37.695Z,97542.73
2019-01-02T15:18:08.909Z,97545.59
2019-01-02T15:20:38.958Z,97541.05
2019-01-02T15:23:08.741Z,97546.64
2019-01-02T15:25:38.778Z,97549.64
2019-01-02T15:28:08.589Z,97556.31
2019-01-02T15:30:38.711Z,97559.31
2019-01-02T15:33:08.848Z,97556.03
2019-01-02T15:35:38.865Z,97563.59
2019-01-02T15:38:09.073Z,97572.86
2019-01-02T15:40:40.906Z,97567.63
2019-01-02T15:43:11.242Z,97564.75
2019-01-02T15:45:41.905Z,97575.40
2019-01-02T15:48:13.006Z,97569.73
2019-01-02T15:50:42.851Z,97568.46
2019-01-02T15:53:12.771Z,97576.25
2019-01-02T15:55:43.421Z,97570.91
2019-01-02T15:58:13.503Z,97580.85
2019-01-02T16:00:43.615Z,97584.58
2019-01-02T16:03:18.904Z,97582.13
2019-01-02T16:05:49.752Z,97581.84
2019-01-02T16:08:19.633Z,97586.50
2019-01-02T16:10:50.124Z,97600.30
2019-01-02T16:13:19.939Z,97595.38
2019-01-02T16:15:49.813Z,97603.02
2019-01-02T16:18:19.930Z,97599.76
2019-01-02T16:20:51.462Z,97602.84
2019-01-02T16:23:21.409Z,97602.23
2019-01-02T16:25:52.106Z,97601.52
2019-01-02T16:28:23.662Z,97606.77
2019-01-02T16:30:53.638Z,97611.30
2019-01-02T16:33:23.584Z,97609.64
2019-01-02T16:35:54.981Z,97609.64
2019-01-02T16:38:24.898Z,97609.86
2019-01-02T16:40:55.854Z,97617.77
2019-01-02T16:43:27.281Z,97617.77
2019-01-02T16:45:57.101Z,97614.98
2019-01-02T16:48:27.055Z,97624.73
2019-01-02T16:51:01.721Z,97632.23
2019-01-02T16:53:31.784Z,97632.23
2019-01-02T16:56:03.217Z,97618.89
2019-01-02T16:58:33.195Z,97631.12
2019-01-02T17:01:02.994Z,97628.94
2019-01-02T17:03:35.670Z,97628.94
2019-01-02T17:06:06.928Z,97618.69
2019-01-02T17:08:36.838Z,97618.69
2019-01-02T17:11:09.816Z,97633.98
2019-01-02T17:13:40.258Z,97633.98
2019-01-02T17:16:10.175Z,97631.31
2019-01-02T17:18:40.197Z,97631.31
2019-01-02T17:21:10.261Z,97622.48
2019-01-02T17:23:40.187Z,97632.03
2019-01-02T17:26:11.393Z,97628.73
2019-01-02T17:28:42.023Z,97626.16
2019-01-02T17:31:11.868Z,97624.41
2019-01-02T17:33:41.901Z,97624.41
2019-01-02T17:36:11.942Z,97631.70
2019-01-02T17:38:41.850Z,97631.70
2019-01-02T17:41:11.840Z,97622.08
2019-01-02T17:43:41.806Z,97622.78
2019-01-02T17:46:11.686Z,97622.78
2019-01-02T17:48:41.591Z,97636.81
2019-01-02T17:51:11.603Z,97629.89
2019-01-02T17:53:41.651Z,97624.68
2019-01-02T17:56:11.539Z,97631.02
2019-01-02T17:58:41.353Z,97631.20
2019-01-02T18:01:11.495Z,97639.98
2019-01-02T18:03:41.603Z,97640.94
2019-01-02T18:06:11.658Z,97642.11
2019-01-02T18:08:41.390Z,97651.06
2019-01-02T18:11:11.137Z,97655.20
2019-01-02T18:13:41.051Z,97659.77
2019-01-02T18:16:10.895Z,97659.50
2019-01-02T18:18:40.804Z,97659.50
2019-01-02T18:21:11.958Z,97655.02
2019-01-02T18:23:43.394Z,97670.86
2019-01-02T18:26:13.370Z,97670.86
2019-01-02T18:28:43.448Z,97667.33
2019-01-02T18:31:14.878Z,97668.02
2019-01-02T18:33:44.627Z,97678.70
2019-01-02T18:36:14.497Z,97676.30
2019-01-02T18:38:44.633Z,97678.80
2019-01-02T18:41:14.564Z,97690.81
2019-01-02T18:43:44.773Z,97700.51
2019-01-02T18:46:14.674Z,97698.41
2019-01-02T18:48:44.499Z,97706.33
2019-01-02T18:51:14.303Z,97695.74
2019-01-02T18:53:44.208Z,97708.39
2019-01-02T18:56:14.140Z,97708.24
2019-01-02T18:58:43.887Z,97715.66
2019-01-02T19:01:13.750Z,97709.94
2019-01-02T19:03:43.510Z,97719.09
2019-01-02T19:06:13.384Z,97725.35
2019-01-02T19:08:43.209Z,97725.30
2019-01-02T19:11:13.006Z,97728.89
2019-01-02T19:13:43.121Z,97724.09
2019-01-02T19:16:13.054Z,97748.98
2019-01-02T19:18:42.868Z,97738.84
2019-01-02T19:21:12.997Z,97738.80
2019-01-02T19:23:42.831Z,97747.98
2019-01-02T19:26:13.040Z,97757.64
2019-01-02T19:28:42.920Z,97754.78
2019-01-02T19:31:12.779Z,97755.48
2019-01-02T19:33:42.984Z,97749.90
2019-01-02T19:36:12.747Z,97740.33
2019-01-02T19:39:04.281Z,97747.66
2019-01-02T19:41:35.334Z,97743.72
2019-01-02T19:44:06.538Z,97742.07
2019-01-02T19:46:39.862Z,97746.10
2019-01-02T19:49:10.206Z,97747.00
2019-01-02T19:51:41.555Z,97745.51
2019-01-02T19:54:12.062Z,97740.50
2019-01-02T19:56:42.021Z,97747.42
2019-01-02T19:59:12.620Z,97743.38
2019-01-02T20:01:42.753Z,97728.56
2019-01-02T20:04:15.814Z,97727.30
2019-01-02T20:06:50.153Z,97737.06
2019-01-02T20:09:21.722Z,97739.47
2019-01-02T20:11:56.544Z,97745.17
2019-01-02T20:14:28.003Z,97756.05
2019-01-02T20:17:02.942Z,97759.12
2019-01-02T20:19:33.978Z,97764.69
2019-01-02T20:22:10.837Z,97776.33
2019-01-02T20:24:41.610Z,97781.05
2019-01-02T20:27:17.081Z,97780.77
2019-01-02T20:29:48.451Z,97777.11
2019-01-02T20:32:24.140Z,97777.80
2019-01-02T20:34:57.638Z,97775.53
2019-01-02T20:37:28.885Z,97788.00
2019-01-02T20:39:59.611Z,97786.72
2019-01-02T20:42:30.087Z,97786.42
2019-01-02T20:44:59.991Z,97794.16
2019-01-02T20:47:32.683Z,97794.95
2019-01-02T20:50:04.063Z,97797.45
2019-01-02T20:52:33.990Z,97791.23
2019-01-02T20:55:04.543Z,97799.91
2019-01-02T20:57:36.611Z,97799.08
2019-01-02T21:00:10.922Z,97789.76
2019-01-02T21:02:46.248Z,97779.89
2019-01-02T21:05:17.628Z,97808.73
2019-01-02T21:07:47.767Z,97814.84
2019-01-02T21:10:17.759Z,97806.02
2019-01-02T21:12:47.778Z,97804.92
2019-01-02T21:15:18.506Z,97798.80
2019-01-02T21:17:49.856Z,97793.77
2019-01-02T21:20:20.993Z,97801.06
2019-01-02T21:22:50.778Z,97803.27
2019-01-02T21:25:21.356Z,97803.53
2019-01-02T21:27:51.282Z,97812.15
2019-01-02T21:30:21.187Z,97814.09
2019-01-02T21:32:51.177Z,97817.77
2019-01-02T21:35:24.339Z,97817.81
2019-01-02T21:37:55.223Z,97812.73
2019-01-02T21:40:25.840Z,97824.27
2019-01-02T21:42:57.212Z,97820.56
2019-01-02T21:45:27.612Z,97827.03
2019-01-02T21:47:57.491Z,97815.75
2019-01-02T21:50:27.476Z,97820.36
2019-01-02T21:52:57.795Z,97810.17
2019-01-02T21:55:27.790Z,97821.12
2019-01-02T21:57:58.877Z,97821.30
2019-01-02T22:00:29.086Z,97826.73
2019-01-02T22:03:03.711Z,97825.10
2019-01-02T22:05:34.642Z,97822.75
2019-01-02T22:08:04.772Z,97818.27
2019-01-02T22:10:34.886Z,97814.78
2019-01-02T22:13:05.118Z,97820.78
2019-01-02T22:15:35.246Z,97818.06
2019-01-02T22:18:06.398Z,97811.75
2019-01-02T22:20:37.373Z,97816.96
2019-01-02T22:23:09.284Z,97811.92
2019-01-02T22:25:39.131Z,97811.41
2019-01-02T22:28:10.620Z,97806.73
2019-01-02T22:30:41.133Z,97821.95
2019-01-02T22:33:11.820Z,97814.54
2019-01-02T22:35:46.855Z,97813.23
2019-01-02T22:38:16.798Z,97816.33
2019-01-02T22:40:46.778Z,97818.72
2019-01-02T22:43:17.766Z,97823.53
2019-01-02T22:45:48.055Z,97823.56
2019-01-02T22:48:17.956Z,97829.73
2019-01-02T22:50:47.878Z,97835.70
2019-01-02T22:53:18.711Z,97832.82
2019-01-02T22:55:50.688Z,97834.06
2019-01-02T22:58:21.251Z,97832.52
2019-01-02T23:01:05.107Z,97842.38
2019-01-02T23:03:36.716Z,97836.53
2019-01-02T23:06:08.053Z,97844.95
2019-01-02T23:08:58.307Z,97840.10
2019-01-02T23:11:54.067Z,97844.80
2019-01-02T23:14:42.932Z,97841.38
2019-01-02T23:17:20.492Z,97836.59
2019-01-02T23:20:08.156Z,97837.84
2019-01-02T23:22:46.216Z,97848.69
2019-01-02T23:25:22.989Z,97850.04
2019-01-02T23:27:57.465Z,97854.52
2019-01-02T23:30:38.042Z,97851.87
2019-01-02T23:33:28.734Z,97861.80
2019-01-02T23:36:17.709Z,97863.77
2019-01-02T23:38:49.776Z,97866.13
2019-01-02T23:42:04.624Z,97871.78
2019-01-02T23:48:42.894Z,97873.98
2019-01-02T23:51:55.439Z,97877.97
2019-01-02T23:54:30.844Z,97875.31
2019-01-02T23:57:09.104Z,97878.77
2019-01-02T23:59:53.744Z,97883.63
